Terminal Aerodrome Forecast
Issued by NWS

Home | Current Version | Previous Version | Graphics & Text | Print | Product List | Glossary On
Versions: 1 2 3 4 5 6 7 8 9 10 11 12 13 14 15 16 17 18 19 20 21 22
238
FTUS43 KGRB 050823 AAA
TAFAUW
TAF AMD
KAUW 050823Z 0508/0606 30005KT P6SM SCT020 BKN035
      TEMPO 0508/0512 -SHSN BKN020
     FM051200 31005KT P6SM SCT025
     FM051600 25006KT P6SM SCT030 BKN070
     FM052300 19005KT P6SM SCT025 OVC050=

USA.gov is the U.S. government's official web portal to all federal, state and local government web resources and services.